Huvudsida
METAR-TAF:

METAR-TAF

Flygplatser :

Nadi International Airport

Nadi, Fiji

latitud: 17-45S, longitud: 177-27E, höjd: 13 m

Aktuellt väderrapport

Denna rapport gjordes för 23 minuter sedan, klockan 11:00 UTC
Vind 5 kt från ost/sydost
Temperatur 21°C
Fuktighet 83%
Tryck 1013 hPa
Sikt 10 km eller mer
Få moln på en höjd av 3000 ft

METAR: NFFN 191100Z 11005KT 9999 FEW030 21/18 Q1013 NOSIG

Tid: 23:23 (11:23 UTC)

Väderprognos

Denna rapport gjordes för 6 timmar och 13 minuter sedan, klockan 05:10 UTC
Prognos gäller från 19 kl. 06 UTC till 20 kl. 06 UTC
Vind 3 kt varierande vindriktning
Sikt 10 km eller mer
Få moln på en höjd av 3000 ft
Blir
från 19 kl. 22 UTC till 19 kl. 24 UTC
Vind 10 kt från väst
Blir
från 20 kl. 04 UTC till 20 kl. 06 UTC
Vind 3 kt varierande vindriktning

TAF: NFFN 190510Z 1906/2006 VRB03KT 9999 FEW030 BECMG 1922/1924 27010KT BECMG 2004/2006 VRB03KT

Aktuella väderrapporter och prognoser från 4000 flygplatser (METAR- och TAF-rapporter).

De tillgängliga stationerna syns som gula och röda prickar på kartan.

För musen över prickarna för att se namnen på stationerna.

Klicka sedan för att få väderrapporter och prognoser.

För att ändra kartan: Klicka på de gröna knapparna med ett svart kors på för att zooma in; den gröna knappen med ett streck på för att zooma ut; eller på de gröna pilarna för angränsande kartor.


METAR-TAF: